Time;durP1;ratioP1;P1;durP2;ratioP2;P2;SDS_P1;SDS_P2;PMS_P1;PMS_P2;Temp;Humidity;BMP_temperature;BMP_pressure;BME280_temperature;BME280_humidity;BME280_pressure;Samples;Min_cycle;Max_cycle;Signal;HPM_P1;HPM_P2
2022/09/15 00:01:30;;;;;;;38.88;36.58;;;;;;;18.73;56.76;100637.16;5033552;28;20037;-72
2022/09/15 00:03:55;;;;;;;42.13;39.53;;;;;;;18.73;56.72;100631.69;5048536;28;20048;-72
2022/09/15 00:06:20;;;;;;;40.60;37.97;;;;;;;18.73;56.61;100630.88;5022767;28;20041;-72
2022/09/15 00:08:46;;;;;;;38.03;35.88;;;;;;;18.73;56.50;100622.69;5023190;28;20096;-73
2022/09/15 00:11:17;;;;;;;39.97;37.55;;;;;;;18.72;56.55;100629.25;5028721;28;20038;-72
2022/09/15 00:13:43;;;;;;;37.55;34.97;;;;;;;18.70;56.82;100629.56;5034124;28;20033;-72
2022/09/15 00:16:10;;;;;;;38.25;35.78;;;;;;;18.70;56.14;100626.00;5020099;28;20041;-74
2022/09/15 00:18:37;;;;;;;39.85;37.53;;;;;;;18.69;56.72;100622.44;5032563;28;20506;-73
2022/09/15 00:21:09;;;;;;;38.95;36.55;;;;;;;18.69;56.72;100629.84;5015690;28;20084;-73
2022/09/15 00:23:35;;;;;;;37.25;34.97;;;;;;;18.68;56.17;100623.56;5044437;28;20426;-73
2022/09/15 00:26:00;;;;;;;37.83;35.63;;;;;;;18.66;56.41;100622.25;5018815;28;20038;-73
2022/09/15 00:28:26;;;;;;;39.42;37.03;;;;;;;18.67;56.60;100634.81;5028373;28;20481;-73
2022/09/15 00:30:53;;;;;;;38.83;36.55;;;;;;;18.65;56.58;100626.91;5022061;28;20167;-74
2022/09/15 00:33:20;;;;;;;44.28;38.17;;;;;;;18.64;56.54;100625.28;5019073;28;20397;-74
2022/09/15 00:35:48;;;;;;;41.75;38.60;;;;;;;18.64;56.73;100629.94;5029719;28;20025;-73
2022/09/15 00:38:15;;;;;;;38.22;35.85;;;;;;;18.63;56.38;100623.66;5014259;28;20045;-73
2022/09/15 00:40:50;;;;;;;38.80;36.05;;;;;;;18.63;56.26;100628.31;5023511;28;20025;-73
2022/09/15 00:43:36;;;;;;;39.65;37.00;;;;;;;18.62;56.18;100626.69;5026900;28;20069;-73
2022/09/15 00:46:01;;;;;;;38.13;35.83;;;;;;;18.59;56.78;100630.81;5033267;28;20501;-73
2022/09/15 00:48:27;;;;;;;39.72;36.85;;;;;;;18.58;56.58;100623.75;5027982;28;20041;-73
2022/09/15 00:50:56;;;;;;;39.22;36.63;;;;;;;18.59;56.52;100626.16;5027265;28;20034;-74
2022/09/15 00:53:23;;;;;;;40.80;37.95;;;;;;;18.57;56.79;100633.03;5015199;28;20045;-74
2022/09/15 00:55:49;;;;;;;38.60;36.03;;;;;;;18.57;56.85;100630.31;5024467;28;20042;-73
2022/09/15 00:58:24;;;;;;;39.53;36.95;;;;;;;18.57;56.57;100627.56;5034740;28;20044;-73
2022/09/15 01:00:59;;;;;;;38.45;35.85;;;;;;;18.55;56.66;100632.56;5029577;28;20082;-72
2022/09/15 01:03:27;;;;;;;39.13;36.38;;;;;;;18.54;56.41;100634.44;5041077;28;20398;-72
2022/09/15 01:06:00;;;;;;;38.35;36.10;;;;;;;18.53;56.91;100623.81;5029597;28;20025;-73
2022/09/15 01:08:48;;;;;;;39.13;36.65;;;;;;;18.53;56.66;100630.09;5031106;28;20486;-73
2022/09/15 01:11:15;;;;;;;36.70;34.50;;;;;;;18.51;56.87;100635.06;5031256;28;20049;-76
2022/09/15 01:13:42;;;;;;;37.97;35.60;;;;;;;18.49;56.70;100631.81;5025425;28;20036;-72
2022/09/15 01:16:18;;;;;;;40.92;38.22;;;;;;;18.49;56.47;100626.34;5040927;28;20137;-72
2022/09/15 01:19:10;;;;;;;39.35;37.03;;;;;;;18.50;56.37;100624.44;5038345;28;20032;-72
2022/09/15 01:22:06;;;;;;;38.83;36.08;;;;;;;18.48;56.63;100621.19;5037001;28;20033;-73
2022/09/15 01:24:43;;;;;;;40.33;37.45;;;;;;;18.46;56.87;100616.00;5052042;28;20235;-72
2022/09/15 01:27:21;;;;;;;37.42;35.03;;;;;;;18.46;56.65;100620.66;5025039;28;20470;-72
2022/09/15 01:30:07;;;;;;;39.20;36.92;;;;;;;18.45;56.81;100614.38;5029918;28;20021;-72
2022/09/15 01:33:04;;;;;;;39.75;37.15;;;;;;;18.44;56.74;100617.41;5020564;28;20128;-72
2022/09/15 01:35:46;;;;;;;38.95;36.25;;;;;;;18.43;56.75;100613.06;5037831;28;20025;-74
2022/09/15 01:38:23;;;;;;;37.97;35.63;;;;;;;18.42;56.63;100611.41;5039742;28;20033;-72
2022/09/15 01:40:59;;;;;;;38.35;35.88;;;;;;;18.42;56.84;100603.22;5037226;28;20159;-72
2022/09/15 01:43:26;;;;;;;38.05;35.65;;;;;;;18.40;56.55;100600.78;5035570;28;20040;-73
2022/09/15 01:45:52;;;;;;;37.40;35.22;;;;;;;18.40;57.14;100605.47;5037143;28;20497;-73
2022/09/15 01:48:21;;;;;;;40.58;37.90;;;;;;;18.40;56.64;100611.72;5037279;28;20032;-78
2022/09/15 01:50:50;;;;;;;38.38;36.05;;;;;;;18.39;56.56;100610.09;5039990;28;20129;-73
2022/09/15 01:53:19;;;;;;;37.03;34.30;;;;;;;18.38;57.08;100608.47;5019274;28;20547;-77
2022/09/15 01:56:01;;;;;;;37.95;35.55;;;;;;;18.38;56.94;100619.41;5027457;28;20034;-75
2022/09/15 01:58:26;;;;;;;38.97;36.63;;;;;;;18.37;56.59;100617.81;5031373;28;20075;-74
2022/09/15 02:01:00;;;;;;;38.47;35.97;;;;;;;18.37;57.01;100615.06;5037125;28;20032;-73
2022/09/15 02:03:43;;;;;;;38.40;36.00;;;;;;;18.36;56.71;100608.75;5036073;28;20026;-72
2022/09/15 02:06:28;;;;;;;36.40;33.90;;;;;;;18.36;56.68;100616.16;5044376;28;20394;-72
2022/09/15 02:09:01;;;;;;;36.97;34.78;;;;;;;18.35;56.73;100614.56;5014418;28;20034;-72
2022/09/15 02:11:29;;;;;;;39.38;36.88;;;;;;;18.34;56.60;100613.75;5036368;28;20121;-73
2022/09/15 02:14:20;;;;;;;39.85;37.10;;;;;;;18.34;56.61;100615.63;5043882;28;20030;-72
2022/09/15 02:16:51;;;;;;;37.88;35.47;;;;;;;18.33;56.55;100619.50;5031837;28;20056;-72
2022/09/15 02:19:16;;;;;;;39.90;36.88;;;;;;;18.32;56.73;100615.13;5032018;28;20029;-73
2022/09/15 02:22:15;;;;;;;38.20;35.95;;;;;;;18.32;56.77;100621.44;5033233;28;20028;-73
2022/09/15 02:24:50;;;;;;;38.60;36.13;;;;;;;18.30;56.90;100618.16;5031509;28;20044;-73
2022/09/15 02:27:21;;;;;;;38.90;36.13;;;;;;;18.30;56.97;100618.16;5022311;28;20039;-73
2022/09/15 02:29:48;;;;;;;39.80;37.00;;;;;;;18.30;56.62;100620.91;5035779;28;20041;-75
2022/09/15 02:32:18;;;;;;;38.92;36.58;;;;;;;18.28;56.81;100622.31;5034947;28;20025;-73
2022/09/15 02:34:47;;;;;;;38.78;36.45;;;;;;;18.29;56.61;100626.66;5039054;28;20431;-73
2022/09/15 02:37:13;;;;;;;37.70;35.17;;;;;;;18.28;56.79;100622.31;5018555;28;20543;-73
2022/09/15 02:39:44;;;;;;;39.90;37.40;;;;;;;18.28;56.71;100625.06;5034793;28;20032;-73
2022/09/15 02:42:10;;;;;;;37.60;35.25;;;;;;;18.25;56.96;100620.97;5025874;28;20506;-72
2022/09/15 02:44:35;;;;;;;38.58;36.05;;;;;;;18.26;56.69;100621.78;5026018;28;20048;-73
2022/09/15 02:47:02;;;;;;;36.83;34.58;;;;;;;18.25;56.55;100626.47;5034216;28;20029;-73
2022/09/15 02:49:28;;;;;;;37.92;35.53;;;;;;;18.25;56.66;100631.13;5041606;28;20112;-72
2022/09/15 02:51:54;;;;;;;36.40;34.08;;;;;;;18.24;56.89;100624.00;5026917;28;20116;-73
2022/09/15 02:54:19;;;;;;;38.20;35.95;;;;;;;18.25;56.25;100628.38;5041572;28;20079;-73
2022/09/15 02:56:46;;;;;;;36.78;34.47;;;;;;;18.23;56.68;100616.94;5038196;28;20537;-73
2022/09/15 02:59:12;;;;;;;38.60;36.10;;;;;;;18.22;57.08;100616.13;5039496;28;20096;-72
2022/09/15 03:01:37;;;;;;;37.78;35.58;;;;;;;18.20;56.98;100612.88;5027484;28;20063;-73
2022/09/15 03:04:03;;;;;;;37.50;34.83;;;;;;;18.20;56.99;100615.59;5014684;28;20041;-72
2022/09/15 03:06:33;;;;;;;38.80;36.33;;;;;;;18.21;56.94;100613.66;5031775;28;20393;-72
2022/09/15 03:09:01;;;;;;;37.67;35.40;;;;;;;18.20;56.92;100617.53;5030892;28;20049;-72
2022/09/15 03:11:28;;;;;;;35.00;32.95;;;;;;;18.18;56.57;100620.53;5041474;28;20539;-72
2022/09/15 03:13:55;;;;;;;37.85;35.15;;;;;;;18.17;57.01;100618.94;5037524;28;20030;-73
2022/09/15 03:16:21;;;;;;;37.63;35.38;;;;;;;18.17;56.96;100627.13;5017020;28;20037;-73
2022/09/15 03:18:47;;;;;;;39.78;37.28;;;;;;;18.15;56.60;100621.94;5022471;28;20029;-74
2022/09/15 03:21:14;;;;;;;37.03;34.65;;;;;;;18.15;56.96;100635.63;5023129;28;20021;-72
2022/09/15 03:23:41;;;;;;;37.55;35.03;;;;;;;18.15;56.83;100632.88;5028134;28;20033;-73
2022/09/15 03:26:08;;;;;;;38.03;35.50;;;;;;;18.14;56.69;100636.75;5043477;28;20044;-73
2022/09/15 03:28:34;;;;;;;39.35;37.05;;;;;;;18.12;56.88;100630.75;5031003;28;20102;-72
2022/09/15 03:31:00;;;;;;;37.45;35.08;;;;;;;18.13;56.48;100639.75;5039182;28;20079;-72
2022/09/15 03:33:25;;;;;;;37.60;35.20;;;;;;;18.13;57.00;100640.56;5030591;28;20071;-77
2022/09/15 03:35:51;;;;;;;38.75;36.08;;;;;;;18.12;56.90;100647.16;5031958;28;20474;-72
2022/09/15 03:38:17;;;;;;;38.38;35.80;;;;;;;18.11;56.67;100648.25;5028750;28;20703;-73
2022/09/15 03:40:43;;;;;;;40.78;37.90;;;;;;;18.10;56.64;100649.34;5015589;28;20101;-73
2022/09/15 03:43:10;;;;;;;37.58;35.08;;;;;;;18.09;56.92;100650.47;5041565;28;20030;-73
2022/09/15 03:45:37;;;;;;;38.67;36.28;;;;;;;18.09;56.93;100652.38;5026684;28;20045;-73
2022/09/15 03:48:04;;;;;;;37.42;35.17;;;;;;;18.08;57.18;100665.25;5025318;28;20037;-74
2022/09/15 03:50:30;;;;;;;36.97;34.78;;;;;;;18.07;57.15;100669.09;5019351;28;20036;-73
2022/09/15 03:53:00;;;;;;;39.25;36.85;;;;;;;18.06;56.89;100667.44;5036807;28;20044;-74
2022/09/15 03:55:27;;;;;;;37.67;35.35;;;;;;;18.06;56.85;100672.09;5038148;28;20028;-78
2022/09/15 03:57:53;;;;;;;40.63;37.75;;;;;;;18.05;56.70;100665.84;5035329;28;20033;-72
2022/09/15 04:00:18;;;;;;;38.30;35.80;;;;;;;18.05;57.14;100663.09;5038991;28;20373;-73
2022/09/15 04:02:44;;;;;;;38.85;36.38;;;;;;;18.03;56.68;100659.03;5044775;28;20036;-72
2022/09/15 04:05:12;;;;;;;40.00;37.47;;;;;;;18.02;56.80;100658.22;5019542;28;20133;-73
2022/09/15 04:07:38;;;;;;;38.63;36.00;;;;;;;18.03;56.95;100650.84;5036109;28;20038;-73
2022/09/15 04:10:04;;;;;;;39.08;36.28;;;;;;;18.01;56.74;100653.84;5022414;28;20032;-73
2022/09/15 04:12:31;;;;;;;39.20;36.50;;;;;;;18.01;56.77;100645.66;5033798;28;20036;-78
2022/09/15 04:14:56;;;;;;;39.30;36.70;;;;;;;17.99;56.88;100645.13;5027232;28;20045;-73
2022/09/15 04:17:22;;;;;;;39.20;36.60;;;;;;;18.00;56.59;100645.97;5025172;28;20053;-74
2022/09/15 04:19:48;;;;;;;39.72;37.13;;;;;;;17.99;56.81;100653.34;5029320;28;20208;-73
2022/09/15 04:22:13;;;;;;;38.30;35.67;;;;;;;17.98;57.21;100646.25;5032117;28;20032;-73
2022/09/15 04:24:39;;;;;;;39.60;36.97;;;;;;;17.97;57.11;100650.09;5032675;28;20093;-74
2022/09/15 04:27:04;;;;;;;37.78;35.35;;;;;;;17.97;56.83;100652.00;5032086;28;20045;-73
2022/09/15 04:29:29;;;;;;;39.30;36.65;;;;;;;17.95;56.93;100655.84;5035217;28;20053;-78
2022/09/15 04:31:55;;;;;;;36.80;34.47;;;;;;;17.95;57.12;100641.38;5014646;28;20137;-73
2022/09/15 04:34:20;;;;;;;39.55;36.67;;;;;;;17.95;56.86;100650.38;5018996;28;20441;-72
2022/09/15 04:36:46;;;;;;;39.15;36.58;;;;;;;17.94;57.14;100643.31;5017822;28;20532;-72
2022/09/15 04:39:12;;;;;;;38.63;35.80;;;;;;;17.92;57.17;100650.97;5039537;28;20432;-76
2022/09/15 04:41:38;;;;;;;38.22;35.78;;;;;;;17.92;57.09;100639.25;5042150;28;20481;-73
2022/09/15 04:44:03;;;;;;;36.88;34.65;;;;;;;17.91;56.86;100638.41;5042137;28;20036;-72
2022/09/15 04:46:29;;;;;;;38.50;35.95;;;;;;;17.91;56.96;100632.13;5023337;28;20125;-73
2022/09/15 04:48:55;;;;;;;37.85;35.60;;;;;;;17.91;57.07;100632.13;5024521;28;20117;-75
2022/09/15 04:51:21;;;;;;;36.10;33.80;;;;;;;17.90;57.15;100638.72;5028768;28;20474;-73
2022/09/15 04:53:47;;;;;;;38.47;36.13;;;;;;;17.89;56.90;100632.44;5021098;28;20040;-73
2022/09/15 04:56:18;;;;;;;36.75;34.53;;;;;;;17.87;57.05;100637.38;5041152;28;20480;-73
2022/09/15 04:58:49;;;;;;;39.50;36.97;;;;;;;17.88;56.95;100632.72;5044402;28;20112;-74
2022/09/15 05:01:18;;;;;;;38.13;35.58;;;;;;;17.87;57.20;100628.38;5021920;28;20030;-72
2022/09/15 05:03:45;;;;;;;39.70;37.10;;;;;;;17.87;57.19;100631.13;5025318;28;20037;-73
2022/09/15 05:06:13;;;;;;;38.78;36.33;;;;;;;17.86;56.99;100629.47;5036588;28;20033;-73
2022/09/15 05:08:39;;;;;;;38.40;35.67;;;;;;;17.86;56.95;100640.41;5022506;28;20474;-73
2022/09/15 05:11:07;;;;;;;38.38;35.95;;;;;;;17.85;56.91;100631.41;5014992;28;20029;-73
2022/09/15 05:13:33;;;;;;;39.20;36.53;;;;;;;17.85;57.21;100649.72;5029747;28;20083;-76
2022/09/15 05:16:10;;;;;;;39.83;37.22;;;;;;;17.84;57.05;100642.59;5032928;28;20045;-74
2022/09/15 05:18:36;;;;;;;38.25;35.72;;;;;;;17.83;57.34;100641.00;5016727;28;20124;-77
2022/09/15 05:21:03;;;;;;;39.28;36.38;;;;;;;17.83;57.03;100641.00;5032773;28;20192;-74
2022/09/15 05:23:30;;;;;;;38.70;36.13;;;;;;;17.82;56.94;100648.38;5019792;28;20030;-75
2022/09/15 05:25:56;;;;;;;39.58;36.97;;;;;;;17.82;57.33;100650.31;5022781;28;20068;-73
2022/09/15 05:28:23;;;;;;;37.97;35.78;;;;;;;17.81;57.29;100654.94;5036618;28;20478;-73
2022/09/15 05:30:53;;;;;;;38.80;36.30;;;;;;;17.80;57.30;100657.97;5032554;28;20174;-75
2022/09/15 05:33:22;;;;;;;38.67;35.90;;;;;;;17.79;57.08;100659.88;5033915;28;20465;-72
2022/09/15 05:35:56;;;;;;;39.47;36.90;;;;;;;17.79;57.32;100668.06;5014317;28;20053;-72
2022/09/15 05:38:22;;;;;;;37.05;34.58;;;;;;;17.80;57.14;100668.91;5041013;28;20044;-73
2022/09/15 05:40:48;;;;;;;37.85;35.45;;;;;;;17.78;57.40;100666.44;5034362;28;20060;-76
2022/09/15 05:43:14;;;;;;;37.47;35.13;;;;;;;17.78;56.99;100671.88;5035899;28;20079;-74
2022/09/15 05:45:42;;;;;;;37.85;34.85;;;;;;;17.78;57.37;100676.56;5031709;28;20065;-75
2022/09/15 05:48:09;;;;;;;35.50;33.25;;;;;;;17.77;57.09;100675.75;5040165;28;20038;-73
2022/09/15 05:50:35;;;;;;;38.63;35.85;;;;;;;17.77;57.18;100674.94;5024720;28;20030;-72
2022/09/15 05:53:01;;;;;;;36.40;34.00;;;;;;;17.77;57.40;100674.94;5045701;28;20759;-76
2022/09/15 05:55:27;;;;;;;36.97;34.15;;;;;;;17.76;57.53;100679.56;5034208;28;20040;-78
2022/09/15 05:57:53;;;;;;;41.25;38.38;;;;;;;17.75;57.99;100675.22;5013086;28;20113;-74
2022/09/15 06:00:18;;;;;;;39.40;36.63;;;;;;;17.72;58.17;100684.81;5033205;28;20033;-78
2022/09/15 06:02:44;;;;;;;39.17;36.55;;;;;;;17.72;58.15;100681.28;5026960;28;20467;-75
2022/09/15 06:05:09;;;;;;;39.47;36.88;;;;;;;17.71;58.31;100685.94;4996770;28;20057;-78
2022/09/15 06:07:35;;;;;;;38.05;35.40;;;;;;;17.70;58.12;100687.00;5039086;28;20094;-77
2022/09/15 06:10:01;;;;;;;38.85;36.17;;;;;;;17.70;58.21;100680.75;5046774;28;20489;-78
2022/09/15 06:12:26;;;;;;;37.25;34.85;;;;;;;17.70;58.28;100691.66;5025670;28;20037;-77
2022/09/15 06:14:52;;;;;;;40.33;37.53;;;;;;;17.69;58.28;100696.31;5028458;28;20034;-78
2022/09/15 06:17:17;;;;;;;37.30;34.85;;;;;;;17.70;58.31;100694.41;5015693;28;20065;-76
2022/09/15 06:19:42;;;;;;;39.85;36.67;;;;;;;17.68;58.32;100697.41;5044186;28;20041;-81
2022/09/15 06:22:08;;;;;;;39.00;36.40;;;;;;;17.67;57.98;100701.25;5026120;28;20049;-79
2022/09/15 06:24:33;;;;;;;37.78;35.30;;;;;;;17.68;58.35;100710.25;5046625;28;20039;-76
2022/09/15 06:26:59;;;;;;;37.67;35.17;;;;;;;17.67;58.05;100700.47;5028565;28;20038;-77
2022/09/15 06:29:25;;;;;;;39.38;36.83;;;;;;;17.67;58.17;100703.19;5005594;28;20461;-78
2022/09/15 06:31:50;;;;;;;39.22;36.65;;;;;;;17.66;57.99;100707.00;5029527;28;20390;-79
2022/09/15 06:34:16;;;;;;;37.70;35.20;;;;;;;17.66;58.25;100709.72;5017160;28;20432;-76
2022/09/15 06:36:41;;;;;;;38.10;35.50;;;;;;;17.65;58.29;100708.94;5047472;28;20037;-83
2022/09/15 06:39:07;;;;;;;39.65;36.28;;;;;;;17.65;58.12;100703.47;5034287;28;20043;-79
2022/09/15 06:41:33;;;;;;;38.20;35.80;;;;;;;17.65;58.11;100711.66;5031961;28;20296;-78
2022/09/15 06:43:58;;;;;;;39.13;36.33;;;;;;;17.65;58.02;100719.06;5028664;28;20397;-77
2022/09/15 06:46:25;;;;;;;37.53;35.03;;;;;;;17.65;58.14;100719.06;5035179;28;20044;-77
2022/09/15 06:48:52;;;;;;;39.45;36.97;;;;;;;17.64;58.51;100725.59;5032334;28;20044;-78
2022/09/15 06:51:21;;;;;;;38.83;36.03;;;;;;;17.63;58.17;100727.53;5007668;28;20030;-79
2022/09/15 06:53:47;;;;;;;38.97;36.13;;;;;;;17.63;58.18;100724.78;5033790;28;20122;-77
2022/09/15 06:56:18;;;;;;;38.72;36.10;;;;;;;17.63;58.10;100738.44;5007827;28;20052;-77
2022/09/15 06:58:44;;;;;;;37.28;34.75;;;;;;;17.63;58.39;100730.25;5043621;28;20179;-78
2022/09/15 07:01:12;;;;;;;37.20;34.50;;;;;;;17.64;58.54;100736.53;5031620;28;20052;-77
2022/09/15 07:03:40;;;;;;;38.22;35.67;;;;;;;17.63;58.48;100737.63;5043514;28;20134;-78
2022/09/15 07:06:07;;;;;;;35.55;32.95;;;;;;;17.63;58.26;100743.09;5033492;28;20723;-79
2022/09/15 07:08:33;;;;;;;36.85;34.10;;;;;;;17.63;58.15;100748.56;5023997;28;20037;-76
2022/09/15 07:10:58;;;;;;;36.50;34.20;;;;;;;17.62;58.30;100745.03;5041436;28;20044;-76
2022/09/15 07:13:24;;;;;;;37.58;34.70;;;;;;;17.62;58.32;100755.94;5006312;28;20034;-77
2022/09/15 07:15:54;;;;;;;38.88;35.83;;;;;;;17.63;58.49;100749.38;5013523;28;20048;-77
2022/09/15 07:18:21;;;;;;;37.13;34.63;;;;;;;17.64;58.68;100759.22;5027450;28;20119;-76
2022/09/15 07:20:46;;;;;;;41.65;38.75;;;;;;;17.63;58.63;100754.03;5019644;28;20037;-78
2022/09/15 07:23:11;;;;;;;37.47;34.75;;;;;;;17.62;58.53;100758.69;5036300;28;20040;-77
2022/09/15 07:25:37;;;;;;;36.85;34.55;;;;;;;17.63;58.91;100756.75;5031185;28;20030;-76
2022/09/15 07:28:02;;;;;;;37.53;34.72;;;;;;;17.63;58.91;100754.84;5041490;28;20493;-77
2022/09/15 07:30:28;;;;;;;36.70;34.15;;;;;;;17.63;58.81;100759.50;5025708;28;20065;-77
2022/09/15 07:32:53;;;;;;;38.42;34.83;;;;;;;17.63;58.66;100752.09;5012747;28;20033;-78
2022/09/15 07:35:20;;;;;;;36.85;34.30;;;;;;;17.64;58.63;100763.84;5040923;28;20119;-81
2022/09/15 07:37:47;;;;;;;35.88;33.60;;;;;;;17.65;58.59;100754.56;5011105;28;20378;-78
2022/09/15 07:40:13;;;;;;;38.75;35.80;;;;;;;17.64;59.08;100761.94;5023942;28;20033;-77
2022/09/15 07:42:42;;;;;;;37.53;35.08;;;;;;;17.64;59.24;100756.47;5028553;28;20039;-78
2022/09/15 07:45:08;;;;;;;38.65;35.72;;;;;;;17.65;58.87;100758.09;5004984;28;20100;-78
2022/09/15 07:47:33;;;;;;;36.78;34.45;;;;;;;17.66;59.27;100759.72;5008588;28;20408;-77
2022/09/15 07:49:59;;;;;;;37.63;34.83;;;;;;;17.65;58.92;100760.84;5030692;28;20035;-76
2022/09/15 07:52:24;;;;;;;36.42;33.85;;;;;;;17.66;59.08;100767.09;5030518;28;20044;-76
2022/09/15 07:54:49;;;;;;;35.97;33.72;;;;;;;17.67;59.00;100771.47;5038036;28;20028;-77
2022/09/15 07:57:15;;;;;;;38.22;35.53;;;;;;;17.67;59.08;100768.75;5049459;28;20508;-74
2022/09/15 07:59:40;;;;;;;36.33;34.03;;;;;;;17.68;59.49;100767.63;5030240;28;20061;-74
2022/09/15 08:02:06;;;;;;;37.53;34.83;;;;;;;17.68;59.39;100765.72;5026878;28;20500;-73
2022/09/15 08:04:31;;;;;;;37.75;35.40;;;;;;;17.68;59.28;100776.63;5029616;28;20162;-73
2022/09/15 08:06:57;;;;;;;36.47;34.17;;;;;;;17.69;59.54;100775.56;5034784;28;20116;-80
2022/09/15 08:09:22;;;;;;;37.55;34.95;;;;;;;17.70;59.31;100782.63;5028112;28;20092;-76
2022/09/15 08:11:48;;;;;;;36.67;34.28;;;;;;;17.70;59.32;100787.28;5004240;28;20030;-76
2022/09/15 08:14:13;;;;;;;35.35;33.17;;;;;;;17.70;59.52;100781.81;5035169;28;20065;-76
2022/09/15 08:16:39;;;;;;;36.08;33.58;;;;;;;17.71;59.66;100795.19;5031495;28;20538;-76
2022/09/15 08:19:05;;;;;;;36.03;33.83;;;;;;;17.72;59.58;100798.75;5030403;28;20041;-76
2022/09/15 08:21:30;;;;;;;35.55;33.08;;;;;;;17.72;59.66;100798.75;5021044;28;20025;-77
2022/09/15 08:24:00;;;;;;;36.50;33.65;;;;;;;17.72;60.09;100805.00;5014410;28;20041;-76
2022/09/15 08:26:26;;;;;;;34.88;32.47;;;;;;;17.73;59.48;100803.91;5011652;28;20124;-76
2022/09/15 08:28:52;;;;;;;34.88;32.85;;;;;;;17.73;59.81;100806.63;5020468;28;20172;-78
2022/09/15 08:31:17;;;;;;;36.10;33.85;;;;;;;17.74;59.66;100813.75;5026111;28;20112;-77
2022/09/15 08:33:50;;;;;;;33.95;32.05;;;;;;;17.76;60.19;100812.63;5020497;28;20038;-76
2022/09/15 08:36:16;;;;;;;35.28;33.10;;;;;;;17.76;59.97;100812.63;5031626;28;20038;-76
2022/09/15 08:38:43;;;;;;;35.13;33.05;;;;;;;17.76;59.81;100801.69;5032195;28;20033;-77
2022/09/15 08:41:14;;;;;;;35.85;33.35;;;;;;;17.77;60.41;100806.06;5040183;28;20028;-77
2022/09/15 08:43:53;;;;;;;39.35;36.88;;;;;;;17.77;60.51;100811.53;5046399;28;20036;-76
2022/09/15 08:46:26;;;;;;;38.25;35.15;;;;;;;17.77;60.31;100811.53;5036082;28;20033;-76
2022/09/15 08:49:02;;;;;;;35.70;33.38;;;;;;;17.78;60.28;100824.91;5039240;28;20473;-77
2022/09/15 08:51:37;;;;;;;33.75;31.73;;;;;;;17.79;60.29;100825.69;5050285;28;20064;-76
2022/09/15 08:54:10;;;;;;;35.65;33.30;;;;;;;17.80;60.54;100821.91;5021056;28;20084;-78
2022/09/15 08:56:37;;;;;;;36.97;34.70;;;;;;;17.82;60.32;100825.19;5023917;28;20029;-78
2022/09/15 08:59:03;;;;;;;34.80;32.22;;;;;;;17.83;60.34;100833.06;5007555;28;20029;-77
2022/09/15 09:01:36;;;;;;;33.83;31.92;;;;;;;17.85;60.64;100841.00;5026375;28;20053;-78
2022/09/15 09:04:15;;;;;;;35.50;32.60;;;;;;;17.87;60.63;100838.78;5032758;28;20033;-77
2022/09/15 09:06:46;;;;;;;34.65;32.50;;;;;;;17.87;60.16;100836.88;5033655;28;20124;-75
2022/09/15 09:09:44;;;;;;;35.35;33.00;;;;;;;17.88;60.23;100832.22;5034184;28;20478;-77
2022/09/15 09:12:34;;;;;;;33.15;31.35;;;;;;;17.89;60.52;100833.81;5033537;28;20041;-75
2022/09/15 09:15:19;;;;;;;34.35;32.38;;;;;;;17.88;60.14;100830.28;5023280;28;20044;-75
2022/09/15 09:18:17;;;;;;;34.92;32.55;;;;;;;17.91;60.03;100837.09;5038045;28;20128;-75
2022/09/15 09:20:48;;;;;;;;;;;;;;;17.91;59.97;100837.91;5033136;28;20465;-76
2022/09/15 09:23:20;;;;;;;33.50;31.48;;;;;;;17.91;60.00;100843.34;5051165;28;19933;-77
2022/09/15 09:25:46;;;;;;;35.35;32.95;;;;;;;17.92;59.85;100841.47;5049724;28;20029;-76
2022/09/15 09:28:28;;;;;;;35.25;33.08;;;;;;;17.94;60.34;100833.75;5028512;28;20037;-75
2022/09/15 09:31:00;;;;;;;35.25;33.20;;;;;;;17.94;59.64;100845.53;5026788;28;20026;-76
2022/09/15 09:34:10;;;;;;;35.13;32.75;;;;;;;17.97;60.34;100841.41;5033963;28;20111;-76
2022/09/15 09:36:36;;;;;;;34.17;32.00;;;;;;;17.98;59.78;100836.75;5033245;28;20123;-75
2022/09/15 09:39:02;;;;;;;34.35;32.38;;;;;;;18.00;59.87;100842.75;5010676;28;20064;-76
2022/09/15 09:41:35;;;;;;;34.88;32.67;;;;;;;18.00;60.31;100840.81;5020018;28;20461;-75
2022/09/15 09:44:02;;;;;;;34.03;31.73;;;;;;;18.02;60.18;100840.53;5033813;28;20168;-78
2022/09/15 09:46:28;;;;;;;35.58;33.05;;;;;;;18.04;60.51;100849.25;5033146;28;20040;-80
2022/09/15 09:49:15;;;;;;;35.75;33.58;;;;;;;18.04;60.30;100850.09;5030982;28;20033;-77
2022/09/15 09:51:58;;;;;;;34.42;32.30;;;;;;;18.05;60.63;100851.69;5028603;28;20029;-78
2022/09/15 09:54:27;;;;;;;32.80;30.58;;;;;;;18.06;59.88;100860.72;5033862;28;20040;-77
2022/09/15 09:56:55;;;;;;;34.38;32.67;;;;;;;18.07;59.78;100865.09;5031277;28;20460;-79
2022/09/15 09:59:42;;;;;;;32.88;31.08;;;;;;;18.08;59.56;100869.44;5030879;28;20052;-78
2022/09/15 10:02:10;;;;;;;36.15;33.80;;;;;;;18.10;59.49;100869.97;5051372;28;20036;-78
2022/09/15 10:04:41;;;;;;;35.15;33.35;;;;;;;18.10;59.28;100861.78;5031484;28;20061;-79
2022/09/15 10:07:07;;;;;;;34.03;31.80;;;;;;;18.11;58.95;100861.47;5029379;28;20536;-79
2022/09/15 10:09:33;;;;;;;33.35;31.63;;;;;;;18.13;59.20;100869.38;5020973;28;20033;-78
2022/09/15 10:12:03;;;;;;;33.83;31.80;;;;;;;18.13;59.48;100864.72;5029704;28;20048;-77
2022/09/15 10:14:38;;;;;;;35.42;33.28;;;;;;;18.15;59.01;100868.00;5029820;28;20401;-78
2022/09/15 10:17:12;;;;;;;34.47;32.58;;;;;;;18.16;58.81;100868.78;5035518;28;20029;-78
2022/09/15 10:19:48;;;;;;;33.25;31.08;;;;;;;18.16;59.29;100863.31;5036852;28;20066;-80
2022/09/15 10:22:29;;;;;;;36.80;34.90;;;;;;;18.18;59.26;100869.31;5030879;28;20564;-79
2022/09/15 10:24:54;;;;;;;32.38;30.58;;;;;;;18.18;59.17;100861.13;5031346;28;20043;-79
2022/09/15 10:27:31;;;;;;;34.13;32.17;;;;;;;18.19;59.10;100868.22;5030193;28;20377;-79
2022/09/15 10:30:11;;;;;;;34.33;32.30;;;;;;;18.20;59.23;100866.31;4992394;28;1105534;-78
2022/09/15 10:32:37;;;;;;;34.85;32.78;;;;;;;18.21;58.98;100867.94;5027965;28;20309;-80
2022/09/15 10:35:11;;;;;;;32.33;30.45;;;;;;;18.21;59.20;100865.19;5011311;28;20040;-80
2022/09/15 10:37:49;;;;;;;34.30;32.50;;;;;;;18.23;58.85;100872.00;5030476;28;20432;-80
2022/09/15 10:40:24;;;;;;;;;;;;;;;18.24;58.94;100870.06;5030714;28;20029;-79
2022/09/15 10:42:52;;;;;;;32.30;30.45;;;;;;;18.23;58.84;100861.06;5054868;28;20007;-79
2022/09/15 10:45:25;;;;;;;34.83;32.83;;;;;;;18.23;59.32;100852.06;5037836;28;20427;-79
2022/09/15 10:48:08;;;;;;;32.78;30.75;;;;;;;18.24;59.46;100856.41;5023010;28;20037;-79
2022/09/15 10:50:36;;;;;;;33.53;31.70;;;;;;;18.25;59.46;100852.59;5031543;28;20553;-78
2022/09/15 10:53:18;;;;;;;33.53;31.77;;;;;;;18.26;58.94;100856.94;5029850;28;20044;-78
2022/09/15 10:56:00;;;;;;;36.03;34.05;;;;;;;18.27;59.17;100847.63;5028201;28;20038;-77
2022/09/15 10:58:49;;;;;;;33.75;31.83;;;;;;;18.28;59.04;100850.06;5013829;28;20030;-78
2022/09/15 11:01:25;;;;;;;35.28;32.80;;;;;;;18.29;59.27;100865.34;5019266;28;20037;-78
2022/09/15 11:04:10;;;;;;;34.97;33.05;;;;;;;18.30;59.55;100858.00;5012101;28;20034;-76
2022/09/15 11:07:34;;;;;;;33.20;31.30;;;;;;;18.31;59.18;100862.34;5042020;28;20068;-77
2022/09/15 11:10:15;;;;;;;34.85;32.78;;;;;;;18.32;58.90;100867.53;4986434;28;20122;-79
2022/09/15 11:12:51;;;;;;;32.72;31.02;;;;;;;18.32;59.04;100862.06;4970162;28;20042;-78
2022/09/15 11:15:53;;;;;;;34.63;32.75;;;;;;;18.34;58.76;100864.50;5008882;28;20123;-80
2022/09/15 11:18:58;;;;;;;34.42;32.33;;;;;;;18.35;58.56;100864.22;5018320;28;20040;-78
2022/09/15 11:21:28;;;;;;;35.42;33.20;;;;;;;18.35;58.70;100866.13;5014286;28;20430;-80
2022/09/15 11:24:21;;;;;;;33.15;31.25;;;;;;;18.37;59.04;100869.41;5029961;28;20410;-79